Terminal Aerodrome Forecast
Issued by NWS Salt Lake City, UT

Home | Current Version | Previous Version | Text Only | Print | Product List | Glossary On
Versions: 1 2 3 4 5 6 7 8 9 10 11 12 13 14 15 16 17 18 19 20 21 22 23 24 25 26 27 28 29 30 31 32 33 34 35
305
FTUS45 KSLC 221508 AAB
TAFSLC
TAF AMD
KSLC 221508Z 2215/2318 15006KT P6SM SCT080 BKN110
     FM221700 17010KT P6SM VCSH SCT060 BKN080
     FM222100 16008KT P6SM -RA SCT050 BKN070
     FM222300 18006KT P6SM -SHRA VCTS SCT040CB OVC060
     FM230200 16007KT P6SM -RA BKN040 OVC050=

USA.gov is the U.S. government's official web portal to all federal, state and local government web resources and services.